Time;durP1;ratioP1;P1;durP2;ratioP2;P2;SDS_P1;SDS_P2;PMS_P1;PMS_P2;Temp;Humidity;BMP_temperature;BMP_pressure;BME280_temperature;BME280_humidity;BME280_pressure;Samples;Min_cycle;Max_cycle;Signal;HPM_P1;HPM_P2
2022/07/17 00:01:24;;;;;;;4.68;2.63;;;;;;;13.92;100.00;102909.19;7378630;19;20043;-76
2022/07/17 00:03:57;;;;;;;8.07;3.53;;;;;;;13.90;100.00;102902.94;7380118;19;20041;-76
2022/07/17 00:06:27;;;;;;;9.25;3.53;;;;;;;13.89;100.00;102909.06;7380972;19;20014;-76
2022/07/17 00:08:57;;;;;;;6.22;3.63;;;;;;;13.86;100.00;102898.44;7378276;19;20014;-75
2022/07/17 00:11:28;;;;;;;8.63;3.20;;;;;;;13.83;100.00;102900.97;7379037;19;20014;-75
2022/07/17 00:13:58;;;;;;;7.43;2.92;;;;;;;13.87;100.00;102909.88;7379145;19;20015;-76
2022/07/17 00:16:29;;;;;;;9.70;3.10;;;;;;;13.86;100.00;102898.44;7379871;19;20022;-76
2022/07/17 00:19:02;;;;;;;7.97;3.33;;;;;;;13.90;100.00;102904.69;7377835;19;20479;-76
2022/07/17 00:21:35;;;;;;;8.10;3.03;;;;;;;13.87;100.00;102905.50;7376946;19;20015;-75
2022/07/17 00:24:06;;;;;;;12.85;3.40;;;;;;;13.83;100.00;102908.88;7378162;19;20010;-75
2022/07/17 00:26:37;;;;;;;6.55;3.47;;;;;;;13.78;100.00;102910.47;7378650;19;20056;-76
2022/07/17 00:29:07;;;;;;;12.00;3.97;;;;;;;13.77;100.00;102913.06;7378486;19;20014;-76
2022/07/17 00:31:37;;;;;;;9.63;4.43;;;;;;;13.74;100.00;102908.56;7377514;19;20006;-76
2022/07/17 00:34:11;;;;;;;8.60;3.83;;;;;;;13.75;100.00;102897.19;7381873;19;20022;-75
2022/07/17 00:36:41;;;;;;;11.20;3.65;;;;;;;13.74;100.00;102901.56;7378496;19;20031;-76
2022/07/17 00:39:12;;;;;;;7.68;3.10;;;;;;;13.72;100.00;102897.97;7378883;19;20065;-75
2022/07/17 00:41:45;;;;;;;10.15;4.35;;;;;;;13.72;100.00;102894.44;7379571;19;20155;-76
2022/07/17 00:44:16;;;;;;;8.73;3.60;;;;;;;13.71;100.00;102892.66;7379146;19;20045;-76
2022/07/17 00:46:46;;;;;;;6.95;3.47;;;;;;;13.71;100.00;102890.91;7379718;19;20010;-75
2022/07/17 00:49:19;;;;;;;9.18;3.67;;;;;;;13.71;100.00;102890.91;7376632;19;20423;-75
2022/07/17 00:51:49;;;;;;;10.77;3.60;;;;;;;13.68;100.00;102892.53;7380536;19;20516;-76
2022/07/17 00:54:20;;;;;;;9.07;4.85;;;;;;;13.66;100.00;102888.97;7373304;19;20073;-76
2022/07/17 00:56:52;;;;;;;12.10;7.20;;;;;;;13.65;100.00;102880.16;7378085;19;20109;-75
2022/07/17 00:59:27;;;;;;;12.77;3.95;;;;;;;13.63;100.00;102873.94;7378844;19;20011;-75
2022/07/17 01:01:57;;;;;;;8.82;3.88;;;;;;;13.65;100.00;102855.53;7377341;19;20401;-75
2022/07/17 01:04:30;;;;;;;14.23;4.10;;;;;;;13.60;100.00;102846.56;7380054;19;20006;-75
2022/07/17 01:07:04;;;;;;;12.73;4.80;;;;;;;13.53;100.00;102845.47;7378596;19;20022;-75
2022/07/17 01:09:36;;;;;;;9.07;3.85;;;;;;;13.51;100.00;102852.47;7377156;19;20486;-75
2022/07/17 01:12:09;;;;;;;7.80;3.90;;;;;;;13.51;100.00;102851.56;7376211;19;20018;-75
2022/07/17 01:14:49;;;;;;;18.05;5.03;;;;;;;13.50;100.00;102861.22;7379128;19;20006;-76
2022/07/17 01:17:23;;;;;;;9.82;4.25;;;;;;;13.49;100.00;102863.81;7378669;19;20022;-75
2022/07/17 01:19:58;;;;;;;13.35;4.60;;;;;;;13.45;100.00;102868.09;7377707;19;20006;-76
2022/07/17 01:22:31;;;;;;;9.23;4.00;;;;;;;13.42;100.00;102873.25;7378239;19;20010;-75
2022/07/17 01:25:03;;;;;;;9.07;4.20;;;;;;;13.39;100.00;102866.13;7378108;19;20007;-77
2022/07/17 01:27:34;;;;;;;10.68;4.38;;;;;;;13.37;100.00;102870.47;7377604;19;20072;-76
2022/07/17 01:30:05;;;;;;;11.80;4.80;;;;;;;13.35;100.00;102877.41;7378297;19;20459;-76
2022/07/17 01:32:36;;;;;;;11.05;4.57;;;;;;;13.35;100.00;102877.41;7372192;19;21035;-76
2022/07/17 01:35:16;;;;;;;11.35;4.85;;;;;;;13.34;100.00;102869.47;7372303;19;20011;-77
2022/07/17 01:37:54;;;;;;;11.45;5.15;;;;;;;13.34;100.00;102870.34;7378329;19;20006;-75
2022/07/17 01:40:26;;;;;;;11.95;4.60;;;;;;;13.31;100.00;102870.25;7378089;19;20657;-75
2022/07/17 01:43:04;;;;;;;11.30;4.22;;;;;;;13.26;100.00;102863.94;7376611;19;20027;-76
2022/07/17 01:45:38;;;;;;;10.27;4.63;;;;;;;13.26;100.00;102869.19;7370607;19;20007;-75
2022/07/17 01:48:08;;;;;;;11.88;5.30;;;;;;;13.24;100.00;102862.97;7377882;19;20007;-77
2022/07/17 01:50:39;;;;;;;12.05;4.60;;;;;;;13.24;100.00;102859.44;7379104;19;20112;-76
2022/07/17 01:53:12;;;;;;;13.00;5.07;;;;;;;13.22;100.00;102869.94;7383110;19;20307;-76
2022/07/17 01:55:45;;;;;;;11.88;5.05;;;;;;;13.18;100.00;102869.78;7388939;19;20383;-75
2022/07/17 01:58:16;;;;;;;13.82;5.38;;;;;;;13.16;100.00;102867.09;7384845;19;20006;-75
2022/07/17 02:00:47;;;;;;;13.45;5.45;;;;;;;13.17;100.00;102867.97;7387839;19;20499;-76
2022/07/17 02:03:17;;;;;;;10.05;5.18;;;;;;;13.15;100.00;102861.72;7383643;19;20014;-75
2022/07/17 02:05:48;;;;;;;13.32;5.50;;;;;;;13.13;100.00;102864.31;7383403;19;20007;-75
2022/07/17 02:08:21;;;;;;;10.77;5.30;;;;;;;13.12;100.00;102866.88;7384203;19;20043;-76
2022/07/17 02:10:53;;;;;;;11.13;5.37;;;;;;;13.08;100.00;102868.53;7383472;19;20013;-75
2022/07/17 02:13:26;;;;;;;13.20;5.47;;;;;;;13.06;100.00;102862.31;7385351;19;20607;-76
2022/07/17 02:15:56;;;;;;;13.27;5.10;;;;;;;13.06;100.00;102859.66;7381808;19;20014;-76
2022/07/17 02:18:29;;;;;;;13.35;5.25;;;;;;;13.04;100.00;102858.72;7382794;19;20003;-77
2022/07/17 02:20:59;;;;;;;13.20;5.63;;;;;;;13.03;100.00;102864.81;7381694;19;20017;-76
2022/07/17 02:23:34;;;;;;;12.10;5.30;;;;;;;13.00;100.00;102862.09;7381626;19;20020;-77
2022/07/17 02:26:04;;;;;;;11.32;5.40;;;;;;;12.93;100.00;102865.34;7385543;19;20015;-77
2022/07/17 02:28:34;;;;;;;14.05;5.88;;;;;;;12.91;100.00;102867.03;7382674;19;20016;-76
2022/07/17 02:31:04;;;;;;;9.07;4.75;;;;;;;12.88;100.00;102864.28;7382882;19;20015;-76
2022/07/17 02:33:35;;;;;;;12.80;5.30;;;;;;;12.88;100.00;102872.19;7381752;19;20085;-77
2022/07/17 02:36:05;;;;;;;13.07;5.72;;;;;;;12.78;100.00;102871.84;7380587;19;20031;-75
2022/07/17 02:38:38;;;;;;;8.35;4.03;;;;;;;12.78;100.00;102878.84;7380716;19;20611;-76
2022/07/17 02:41:15;;;;;;;11.80;5.03;;;;;;;12.77;100.00;102879.69;7384495;19;20007;-75
2022/07/17 02:43:46;;;;;;;15.27;5.20;;;;;;;12.76;100.00;102889.31;7382243;19;20003;-76
2022/07/17 02:46:16;;;;;;;14.75;4.47;;;;;;;12.74;100.00;102900.63;7385108;19;20362;-76
2022/07/17 02:48:46;;;;;;;12.07;4.60;;;;;;;12.68;100.00;102901.31;7380359;19;20011;-76
2022/07/17 02:51:16;;;;;;;13.32;5.82;;;;;;;12.68;100.00;102895.16;7381733;19;20048;-77
2022/07/17 02:53:49;;;;;;;12.90;4.95;;;;;;;12.66;100.00;102896.81;7378709;19;20011;-77
2022/07/17 02:56:23;;;;;;;11.60;4.43;;;;;;;12.64;100.00;102893.25;7381155;19;20348;-76
2022/07/17 02:58:53;;;;;;;10.55;4.93;;;;;;;12.60;100.00;102902.75;7382226;19;20022;-78
2022/07/17 03:01:23;;;;;;;9.10;4.65;;;;;;;12.59;100.00;102906.22;7379850;19;20014;-76
2022/07/17 03:03:54;;;;;;;9.85;4.68;;;;;;;12.55;100.00;102899.06;7378616;19;20019;-76
2022/07/17 03:06:25;;;;;;;13.82;4.40;;;;;;;12.53;100.00;102897.19;7380694;19;20013;-77
2022/07/17 03:09:00;;;;;;;11.82;5.35;;;;;;;12.50;100.00;102892.72;7381499;19;20510;-76
2022/07/17 03:11:30;;;;;;;14.68;5.32;;;;;;;12.48;100.00;102890.91;7382241;19;20015;-75
2022/07/17 03:14:04;;;;;;;10.90;4.80;;;;;;;12.48;100.00;102891.75;7381172;19;20018;-76
2022/07/17 03:16:34;;;;;;;9.23;4.63;;;;;;;12.50;100.00;102890.09;7380637;19;20019;-75
2022/07/17 03:19:07;;;;;;;14.55;5.20;;;;;;;12.48;100.00;102897.03;7379583;19;20021;-76
2022/07/17 03:21:37;;;;;;;10.05;4.60;;;;;;;12.45;100.00;102899.56;7384731;19;20049;-76
2022/07/17 03:24:10;;;;;;;8.95;4.22;;;;;;;12.43;100.00;102899.50;7379998;19;20562;-77
2022/07/17 03:26:43;;;;;;;13.13;4.78;;;;;;;12.42;100.00;102907.34;7382572;19;20099;-77
2022/07/17 03:29:22;;;;;;;11.18;4.95;;;;;;;12.40;100.00;102903.75;7381313;19;20014;-77
2022/07/17 03:31:54;;;;;;;9.15;4.40;;;;;;;12.37;100.00;102903.66;7379604;19;20043;-77
2022/07/17 03:34:25;;;;;;;10.10;4.25;;;;;;;12.33;100.00;102897.38;7380131;19;20043;-77
2022/07/17 03:36:55;;;;;;;10.75;4.25;;;;;;;12.29;100.00;102900.72;7378543;19;20082;-76
2022/07/17 03:39:28;;;;;;;10.25;4.60;;;;;;;12.31;100.00;102899.03;7380787;19;20047;-76
2022/07/17 03:41:59;;;;;;;10.70;4.88;;;;;;;12.31;100.00;102892.88;7378163;19;20003;-76
2022/07/17 03:44:33;;;;;;;9.77;4.50;;;;;;;12.30;100.00;102896.34;7380137;19;20014;-76
2022/07/17 03:47:03;;;;;;;11.43;4.65;;;;;;;12.33;100.00;102886.84;7380171;19;20043;-77
2022/07/17 03:49:39;;;;;;;10.70;4.20;;;;;;;12.36;100.00;102888.69;7378968;19;20025;-76
2022/07/17 03:52:09;;;;;;;8.20;4.28;;;;;;;12.36;100.00;102881.69;7380135;19;20011;-75
2022/07/17 03:54:42;;;;;;;8.73;4.30;;;;;;;12.39;100.00;102883.56;7376640;19;20483;-77
2022/07/17 03:57:15;;;;;;;11.65;4.75;;;;;;;12.39;100.00;102886.19;7379967;19;20866;-77
2022/07/17 03:59:46;;;;;;;12.68;4.85;;;;;;;12.38;100.00;102892.28;7377094;19;20562;-76
2022/07/17 04:02:16;;;;;;;9.32;4.72;;;;;;;12.38;100.00;102894.91;7381853;19;20011;-77
2022/07/17 04:04:46;;;;;;;8.43;4.35;;;;;;;12.38;100.00;102903.69;7378813;19;20006;-77
2022/07/17 04:10:02;;;;;;;7.90;4.07;;;;;;;12.37;100.00;102904.53;7378733;19;20011;-76
2022/07/17 04:12:35;;;;;;;10.00;4.63;;;;;;;12.37;100.00;102911.53;7377482;19;20096;-76
2022/07/17 04:15:06;;;;;;;12.17;4.87;;;;;;;12.36;100.00;102913.28;7378916;19;20393;-76
2022/07/17 04:17:36;;;;;;;8.02;4.25;;;;;;;12.33;100.00;102921.03;7378089;19;20031;-77
2022/07/17 04:20:09;;;;;;;10.20;4.68;;;;;;;12.31;100.00;102914.81;7375742;19;20035;-78
2022/07/17 04:22:40;;;;;;;9.52;4.35;;;;;;;12.35;100.00;102913.22;7379125;19;20459;-78
2022/07/17 04:25:16;;;;;;;8.52;4.28;;;;;;;12.39;100.00;102909.88;7381814;19;20034;-76
2022/07/17 04:27:46;;;;;;;7.60;4.00;;;;;;;12.43;100.00;102917.94;7377359;19;20018;-76
2022/07/17 04:30:16;;;;;;;10.75;4.70;;;;;;;12.47;100.00;102925.94;7374571;19;20014;-77
2022/07/17 04:32:46;;;;;;;9.32;5.38;;;;;;;12.49;100.00;102930.41;7378673;19;20018;-75
2022/07/17 04:35:17;;;;;;;10.00;4.82;;;;;;;12.56;100.00;102923.63;7378781;19;20034;-77
2022/07/17 04:37:47;;;;;;;12.70;4.63;;;;;;;12.59;100.00;102911.50;7376396;19;20460;-76
2022/07/17 04:40:19;;;;;;;9.35;4.70;;;;;;;12.65;100.00;102903.81;7377866;19;20007;-76
2022/07/17 04:42:53;;;;;;;11.57;4.65;;;;;;;12.74;100.00;102909.44;7377044;19;20351;-76
2022/07/17 04:45:24;;;;;;;10.40;4.65;;;;;;;12.80;100.00;102907.88;7377818;19;20052;-76
2022/07/17 04:47:54;;;;;;;7.30;4.00;;;;;;;12.89;100.00;102908.22;7379540;19;20011;-78
2022/07/17 04:50:24;;;;;;;7.90;3.90;;;;;;;12.98;100.00;102903.28;7379724;19;20027;-76
2022/07/17 04:52:54;;;;;;;10.65;3.95;;;;;;;13.08;100.00;102908.03;7375618;19;20010;-76
2022/07/17 04:55:27;;;;;;;7.93;3.67;;;;;;;13.19;100.00;102901.44;7379610;19;20018;-77
2022/07/17 04:57:57;;;;;;;9.02;3.83;;;;;;;13.33;100.00;102894.91;7378789;19;20010;-77
2022/07/17 05:00:27;;;;;;;9.75;3.95;;;;;;;13.47;100.00;102890.13;7378775;19;20518;-76
2022/07/17 05:02:58;;;;;;;10.05;3.60;;;;;;;13.52;100.00;102890.28;7379857;19;20451;-77
2022/07/17 05:05:31;;;;;;;9.07;4.72;;;;;;;13.74;100.00;102895.38;7379328;19;20602;-77
2022/07/17 05:08:01;;;;;;;7.88;3.97;;;;;;;13.87;100.00;102894.94;7380908;19;20016;-78
2022/07/17 05:10:34;;;;;;;9.15;4.13;;;;;;;13.99;100.00;102889.16;7382451;19;20006;-78
2022/07/17 05:13:07;;;;;;;12.40;4.32;;;;;;;14.15;100.00;102888.81;7382233;19;20014;-77
2022/07/17 05:15:37;;;;;;;8.97;3.70;;;;;;;14.35;100.00;102894.69;7378930;19;20018;-78
2022/07/17 05:18:10;;;;;;;10.50;3.90;;;;;;;14.51;100.00;102890.81;7382392;19;20315;-76
2022/07/17 05:20:46;;;;;;;6.97;3.53;;;;;;;14.64;100.00;102899.09;7380117;19;20021;-77
2022/07/17 05:23:17;;;;;;;9.45;4.50;;;;;;;14.67;100.00;102896.53;7380139;19;20118;-78
2022/07/17 05:25:49;;;;;;;11.80;4.28;;;;;;;14.88;100.00;102900.66;7376996;19;20014;-77
2022/07/17 05:28:19;;;;;;;8.82;3.47;;;;;;;15.10;100.00;102902.16;7378542;19;20014;-78
2022/07/17 05:30:50;;;;;;;9.55;3.25;;;;;;;15.30;100.00;102898.28;7375604;19;20015;-78
2022/07/17 05:33:20;;;;;;;6.75;3.20;;;;;;;15.47;100.00;102904.91;7378158;19;20014;-76
2022/07/17 05:35:51;;;;;;;7.20;3.60;;;;;;;15.53;100.00;102909.47;7376730;19;20027;-77
2022/07/17 05:38:21;;;;;;;8.32;2.75;;;;;;;15.84;100.00;102908.50;7374362;19;20011;-77
2022/07/17 05:40:54;;;;;;;6.47;2.75;;;;;;;15.96;100.00;102901.75;7377587;19;20003;-76
2022/07/17 05:43:24;;;;;;;9.02;3.30;;;;;;;16.22;100.00;102902.34;7374270;19;20412;-76
2022/07/17 05:45:56;;;;;;;9.70;3.17;;;;;;;16.45;99.07;102900.22;7377476;19;20501;-77
2022/07/17 05:48:26;;;;;;;6.78;2.90;;;;;;;16.57;95.02;102894.28;7376623;19;20409;-78
2022/07/17 05:50:56;;;;;;;6.28;2.70;;;;;;;16.69;94.13;102902.50;7375830;19;20010;-79
2022/07/17 05:53:27;;;;;;;9.75;2.45;;;;;;;16.71;92.91;102903.44;7371822;19;20358;-79
2022/07/17 05:55:59;;;;;;;7.47;2.75;;;;;;;16.90;91.57;102899.41;7377114;19;20010;-78
2022/07/17 05:58:29;;;;;;;7.00;2.33;;;;;;;17.01;90.56;102905.81;7378157;19;20007;-80
2022/07/17 06:00:59;;;;;;;5.68;2.47;;;;;;;17.15;88.56;102916.69;7377187;19;20011;-79
2022/07/17 06:03:32;;;;;;;13.18;3.83;;;;;;;17.36;88.70;102903.81;7378226;19;20026;-79
2022/07/17 06:06:03;;;;;;;12.55;2.97;;;;;;;17.47;85.22;102914.63;7378229;19;20011;-79
2022/07/17 06:08:33;;;;;;;6.28;2.53;;;;;;;17.57;86.04;102916.56;7376669;19;20429;-79
2022/07/17 06:11:06;;;;;;;8.02;3.00;;;;;;;17.75;85.32;102927.50;7377790;19;20010;-80
2022/07/17 06:13:36;;;;;;;7.82;2.55;;;;;;;18.06;83.92;102920.03;7378607;19;20359;-80
2022/07/17 06:16:08;;;;;;;9.05;2.60;;;;;;;18.17;81.74;102921.97;7378403;19;20467;-81
2022/07/17 06:18:39;;;;;;;4.85;2.00;;;;;;;18.39;80.22;102920.53;7378320;19;20025;-79
2022/07/17 06:21:09;;;;;;;7.38;2.65;;;;;;;18.40;78.25;102924.97;7378552;19;20034;-80
2022/07/17 06:23:42;;;;;;;5.78;2.53;;;;;;;18.73;78.84;102923.63;7380946;19;20006;-80
2022/07/17 06:26:16;;;;;;;5.47;2.22;;;;;;;18.92;75.32;102925.66;7382384;19;20025;-81
2022/07/17 06:28:49;;;;;;;10.23;2.50;;;;;;;18.72;73.64;102933.38;7382416;19;20044;-78
2022/07/17 06:31:19;;;;;;;6.68;2.35;;;;;;;19.13;74.72;102940.97;7382571;19;20007;-80
2022/07/17 06:33:49;;;;;;;5.68;2.35;;;;;;;19.40;72.96;102935.94;7381396;19;20010;-80
2022/07/17 06:36:19;;;;;;;9.55;2.42;;;;;;;19.77;74.04;102942.50;7385513;19;20053;-80
2022/07/17 06:38:52;;;;;;;7.15;2.28;;;;;;;19.75;70.63;102938.06;7386172;19;20010;-81
2022/07/17 06:41:26;;;;;;;10.75;2.75;;;;;;;19.85;69.95;102951.44;7390749;19;20018;-80
2022/07/17 06:43:56;;;;;;;7.50;2.22;;;;;;;20.22;70.79;102951.72;7391037;19;20057;-81
2022/07/17 06:46:26;;;;;;;4.95;1.98;;;;;;;19.99;68.62;102954.22;7392030;19;20035;-81
2022/07/17 06:48:56;;;;;;;6.38;2.10;;;;;;;20.18;67.71;102947.25;7391747;19;20006;-81
2022/07/17 06:51:26;;;;;;;6.80;2.33;;;;;;;20.14;69.10;102948.13;7387033;19;20051;-76
2022/07/17 06:53:57;;;;;;;7.32;2.47;;;;;;;20.46;68.02;102932.38;7384473;19;20452;-77
2022/07/17 06:56:30;;;;;;;7.72;2.38;;;;;;;20.61;66.30;102947.56;7383135;19;20010;-77
2022/07/17 06:59:01;;;;;;;3.97;1.80;;;;;;;20.58;65.15;102951.09;7385968;19;20007;-78
2022/07/17 07:01:35;;;;;;;6.25;2.47;;;;;;;20.64;65.43;102944.91;7382306;19;20039;-77
2022/07/17 07:04:14;;;;;;;8.98;2.38;;;;;;;20.53;65.03;102945.72;7384560;19;20015;-78
2022/07/17 07:06:45;;;;;;;7.07;2.10;;;;;;;21.01;64.01;102946.81;7386213;19;20036;-79
2022/07/17 07:09:16;;;;;;;7.30;2.10;;;;;;;21.06;62.75;102950.38;7385410;19;20042;-76
2022/07/17 07:14:34;;;;;;;6.32;2.03;;;;;;;21.15;60.73;102953.06;7384379;19;20011;-79
2022/07/17 07:17:05;;;;;;;5.05;1.90;;;;;;;21.26;61.63;102963.81;7384814;19;20019;-78
2022/07/17 07:19:35;;;;;;;5.57;2.30;;;;;;;21.56;60.29;102946.97;7378254;19;20388;-76
2022/07/17 07:22:05;;;;;;;8.73;2.35;;;;;;;21.69;59.13;102945.19;7383395;19;20010;-77
2022/07/17 07:24:35;;;;;;;5.00;1.95;;;;;;;21.48;58.51;102948.72;7382539;19;20051;-78
2022/07/17 07:27:08;;;;;;;7.78;2.25;;;;;;;21.22;59.64;102954.03;7383458;19;20024;-78
2022/07/17 07:29:38;;;;;;;6.10;2.00;;;;;;;21.65;57.44;102944.31;7383375;19;20447;-76
2022/07/17 07:32:08;;;;;;;8.55;2.00;;;;;;;21.71;58.00;102936.28;7380000;19;20035;-76
2022/07/17 07:34:41;;;;;;;5.38;1.83;;;;;;;21.74;57.69;102940.75;7381446;19;20029;-77
2022/07/17 07:37:13;;;;;;;8.93;2.08;;;;;;;21.62;58.79;102946.09;7381592;19;20456;-76
2022/07/17 07:39:43;;;;;;;5.32;2.10;;;;;;;21.54;58.10;102943.41;7378838;19;20014;-76
2022/07/17 07:42:17;;;;;;;4.55;1.95;;;;;;;22.09;57.51;102946.97;7380064;19;20010;-76
2022/07/17 07:44:47;;;;;;;8.85;2.20;;;;;;;21.80;56.28;102938.09;7379645;19;20006;-76
2022/07/17 07:47:18;;;;;;;9.95;2.67;;;;;;;22.02;56.22;102937.19;7382827;19;20007;-76
2022/07/17 07:49:48;;;;;;;5.03;2.10;;;;;;;22.21;54.08;102938.03;7378382;19;20478;-77
2022/07/17 07:52:18;;;;;;;5.38;2.10;;;;;;;22.33;54.08;102938.03;7379662;19;20086;-76
2022/07/17 07:54:48;;;;;;;7.10;2.50;;;;;;;22.35;54.34;102943.38;7377296;19;20725;-76
2022/07/17 07:57:21;;;;;;;6.22;2.15;;;;;;;22.31;55.00;102934.47;7380729;19;20006;-76
2022/07/17 07:59:52;;;;;;;7.65;2.50;;;;;;;22.38;55.65;102930.88;7378897;19;20006;-76
2022/07/17 08:02:22;;;;;;;6.30;2.40;;;;;;;22.81;54.70;102936.13;7382530;19;20031;-76
2022/07/17 08:04:52;;;;;;;6.55;2.28;;;;;;;23.02;55.05;102937.75;7382123;19;20070;-76
2022/07/17 08:07:23;;;;;;;10.15;2.30;;;;;;;23.16;53.19;102936.78;7381437;19;20013;-77
2022/07/17 08:09:53;;;;;;;6.47;2.33;;;;;;;23.07;51.75;102930.59;7383394;19;20361;-76
2022/07/17 08:12:27;;;;;;;8.25;2.45;;;;;;;23.29;51.62;102929.56;7383363;19;20504;-77
2022/07/17 08:15:15;;;;;;;7.70;2.30;;;;;;;23.04;50.26;102926.16;7384764;19;20021;-76
2022/07/17 08:17:46;;;;;;;7.10;2.13;;;;;;;23.01;50.61;102928.84;7387479;19;20015;-77
2022/07/17 08:20:17;;;;;;;5.45;2.22;;;;;;;22.84;50.89;102930.75;7380096;19;20010;-76
2022/07/17 08:22:49;;;;;;;6.88;2.78;;;;;;;23.53;50.98;102931.19;7383940;19;20027;-78
2022/07/17 08:25:36;;;;;;;6.15;2.25;;;;;;;23.54;49.74;102930.34;7382730;19;20487;-75
2022/07/17 08:28:12;;;;;;;5.55;2.17;;;;;;;23.46;49.32;102926.78;7382979;19;20066;-76
2022/07/17 08:30:45;;;;;;;6.57;2.42;;;;;;;23.54;49.51;102930.34;7387101;19;20013;-77
2022/07/17 08:33:17;;;;;;;6.20;2.10;;;;;;;23.39;48.65;102925.94;7385414;19;20015;-76
2022/07/17 08:35:47;;;;;;;3.92;2.05;;;;;;;23.37;49.55;102924.16;7386256;19;20018;-76
2022/07/17 08:38:19;;;;;;;4.80;2.35;;;;;;;23.71;48.74;102920.38;7379978;19;20010;-76
2022/07/17 08:40:52;;;;;;;5.40;2.00;;;;;;;24.18;48.44;102920.78;7382363;19;20043;-76
2022/07/17 08:43:25;;;;;;;6.63;2.67;;;;;;;24.53;47.38;102910.59;7380518;19;20049;-75
2022/07/17 08:45:55;;;;;;;4.13;2.13;;;;;;;24.68;46.10;102917.56;7381616;19;20382;-75
2022/07/17 08:48:30;;;;;;;5.68;2.20;;;;;;;24.61;46.35;102922.13;7377980;19;20017;-77
2022/07/17 08:51:04;;;;;;;7.13;2.20;;;;;;;24.66;45.84;102920.28;7378873;19;20007;-80
2022/07/17 08:53:34;;;;;;;4.82;2.60;;;;;;;24.30;45.55;102913.53;7375718;19;20050;-81
2022/07/17 08:56:05;;;;;;;6.15;2.35;;;;;;;24.67;44.81;102923.84;7380592;19;20066;-76
2022/07/17 08:58:37;;;;;;;5.45;2.40;;;;;;;24.59;45.46;102909.63;7380018;19;20370;-76
2022/07/17 09:01:08;;;;;;;4.35;2.03;;;;;;;24.85;45.63;102915.56;7375661;19;20014;-77
2022/07/17 09:03:39;;;;;;;6.90;2.72;;;;;;;24.74;45.69;102914.81;7378071;19;20015;-78
2022/07/17 09:06:21;;;;;;;3.03;2.10;;;;;;;24.89;45.48;102909.25;7379689;19;20388;-77
2022/07/17 09:08:51;;;;;;;6.88;2.22;;;;;;;24.84;44.15;102912.88;7379662;19;20086;-77
2022/07/17 09:11:21;;;;;;;5.45;2.70;;;;;;;25.06;42.34;102909.00;7377936;19;20037;-77
2022/07/17 09:13:56;;;;;;;6.50;2.22;;;;;;;25.14;43.04;102908.91;7378651;19;20015;-77
2022/07/17 09:16:26;;;;;;;6.53;2.50;;;;;;;25.30;42.21;102910.44;7381230;19;20023;-78
2022/07/17 09:18:57;;;;;;;10.15;3.33;;;;;;;24.72;42.94;102922.00;7375475;19;20011;-76
2022/07/17 09:21:32;;;;;;;5.80;2.63;;;;;;;25.01;43.75;102916.22;7379389;19;20092;-77
2022/07/17 09:24:03;;;;;;;5.20;2.55;;;;;;;25.30;41.88;102910.44;7375375;19;20058;-77
2022/07/17 09:26:37;;;;;;;7.05;2.50;;;;;;;25.20;43.19;102915.06;7377221;19;20472;-77
2022/07/17 09:29:13;;;;;;;5.32;2.63;;;;;;;25.33;42.85;102910.38;7376441;19;20037;-76
2022/07/17 09:31:45;;;;;;;6.75;2.75;;;;;;;25.56;42.94;102908.22;7379270;19;20007;-76
2022/07/17 09:34:19;;;;;;;6.47;2.37;;;;;;;25.68;42.80;102907.16;7378610;19;20284;-82
2022/07/17 09:37:01;;;;;;;5.40;2.28;;;;;;;25.91;41.96;102906.78;7381017;19;20260;-81
2022/07/17 09:39:41;;;;;;;6.13;2.47;;;;;;;25.42;43.13;102913.81;7379283;19;20009;-82
2022/07/17 09:42:24;;;;;;;7.00;2.40;;;;;;;25.22;42.99;102901.63;7382235;19;20115;-81
2022/07/17 09:45:01;;;;;;;4.72;2.80;;;;;;;25.35;42.97;102905.88;7381016;19;20011;-82
2022/07/17 09:47:32;;;;;;;6.25;2.60;;;;;;;25.31;43.22;102913.09;7380310;19;20018;-81
2022/07/17 09:50:04;;;;;;;5.30;2.60;;;;;;;25.61;42.72;102911.72;7378309;19;20047;-81
2022/07/17 09:52:38;;;;;;;5.72;2.72;;;;;;;25.86;43.11;102914.03;7377563;19;20013;-81
2022/07/17 09:55:09;;;;;;;7.97;2.50;;;;;;;25.62;43.63;102904.56;7380852;19;20478;-81
2022/07/17 09:58:01;;;;;;;4.60;2.30;;;;;;;25.51;42.70;102896.66;7379231;19;20240;-81
2022/07/17 10:00:37;;;;;;;6.82;2.70;;;;;;;25.44;44.29;102903.06;7379600;19;20055;-81
2022/07/17 10:03:08;;;;;;;5.53;2.63;;;;;;;25.72;43.79;102901.72;7379421;19;20459;-82
2022/07/17 10:05:40;;;;;;;7.53;2.40;;;;;;;25.62;43.24;102902.75;7294079;19;20014;-83
2022/07/17 10:08:15;;;;;;;5.28;2.38;;;;;;;25.35;43.49;102905.88;7379114;19;20436;-82
2022/07/17 10:10:47;;;;;;;5.07;2.30;;;;;;;25.71;43.13;102912.50;7378740;19;20021;-82
2022/07/17 10:13:19;;;;;;;5.63;2.50;;;;;;;25.64;42.63;102909.03;7386262;19;20042;-82
2022/07/17 10:15:53;;;;;;;3.05;1.98;;;;;;;25.74;41.48;102916.00;7387108;19;20011;-83
2022/07/17 10:18:35;;;;;;;4.18;1.98;;;;;;;25.22;41.54;102918.63;7387433;19;20015;-83
2022/07/17 10:21:16;;;;;;;5.78;2.30;;;;;;;25.92;40.20;102912.13;7382812;19;20527;-81
2022/07/17 10:23:51;;;;;;;4.40;2.20;;;;;;;26.30;40.20;102911.38;7383929;19;20018;-81
2022/07/17 10:26:33;;;;;;;6.25;2.42;;;;;;;26.23;40.60;102920.47;7387124;19;20029;-81
2022/07/17 10:29:04;;;;;;;5.87;2.37;;;;;;;26.22;40.36;102918.69;7388972;19;20527;-81
2022/07/17 10:31:36;;;;;;;4.72;2.00;;;;;;;26.20;40.57;102917.84;7393551;19;20292;-81
2022/07/17 10:34:08;;;;;;;5.53;2.35;;;;;;;26.95;39.45;102917.22;7388846;19;20014;-81
2022/07/17 10:36:40;;;;;;;7.53;2.25;;;;;;;26.81;38.79;102919.31;7391940;19;20018;-81
2022/07/17 10:39:18;;;;;;;5.90;2.13;;;;;;;26.94;38.58;102934.28;7391976;19;20018;-82
2022/07/17 10:41:59;;;;;;;7.35;2.60;;;;;;;26.77;38.43;102928.38;7387610;19;20018;-82
2022/07/17 10:44:31;;;;;;;5.15;2.28;;;;;;;26.63;39.38;102936.75;7384648;19;20480;-82
2022/07/17 10:47:04;;;;;;;4.72;1.92;;;;;;;26.91;39.57;102925.38;7384152;19;20017;-81
2022/07/17 10:49:37;;;;;;;3.92;2.17;;;;;;;26.97;39.61;102920.78;7383549;19;20412;-82
2022/07/17 10:52:07;;;;;;;5.60;2.40;;;;;;;27.22;39.01;102922.88;7384724;19;20039;-81
2022/07/17 10:54:38;;;;;;;3.53;2.13;;;;;;;27.04;38.40;102916.13;7384262;19;20023;-82
2022/07/17 10:57:08;;;;;;;6.18;2.83;;;;;;;27.22;37.69;102917.50;7386115;19;20018;-82
2022/07/17 10:59:43;;;;;;;7.13;2.38;;;;;;;27.33;38.38;102919.00;7382605;19;20007;-81
2022/07/17 11:02:16;;;;;;;6.00;2.42;;;;;;;27.47;38.42;102924.06;7385130;19;20006;-80
2022/07/17 11:04:46;;;;;;;6.22;2.70;;;;;;;27.75;37.85;102923.41;7383478;19;20041;-78
2022/07/17 11:07:16;;;;;;;5.18;2.63;;;;;;;27.65;37.88;102915.56;7384170;19;20272;-82
2022/07/17 11:09:50;;;;;;;6.57;2.85;;;;;;;27.64;37.78;102921.00;7385979;19;20010;-82
2022/07/17 11:12:20;;;;;;;7.40;2.90;;;;;;;28.03;37.02;102920.88;7381969;19;20029;-82
2022/07/17 11:14:50;;;;;;;5.15;2.63;;;;;;;27.27;38.13;102918.28;7385120;19;20017;-82
2022/07/17 11:17:23;;;;;;;5.90;2.70;;;;;;;27.31;39.05;102907.38;7383085;19;20011;-81
2022/07/17 11:19:53;;;;;;;;;;;;;;;27.52;37.76;102911.38;7383302;19;20011;-81
2022/07/17 11:22:26;;;;;;;6.53;3.00;;;;;;;27.17;38.19;102911.34;7384319;19;19914;-81
2022/07/17 11:24:56;;;;;;;6.68;2.67;;;;;;;27.46;37.35;102918.72;7380513;19;20021;-80
2022/07/17 11:27:29;;;;;;;6.10;2.92;;;;;;;27.23;39.26;102924.66;7381619;19;20015;-82
2022/07/17 11:30:03;;;;;;;5.60;3.10;;;;;;;27.30;38.90;102918.22;7383626;19;20047;-81
2022/07/17 11:32:40;;;;;;;6.87;2.77;;;;;;;27.46;37.58;102922.31;7383077;19;20400;-82
2022/07/17 11:35:20;;;;;;;9.52;3.20;;;;;;;27.73;37.24;102915.38;7380299;19;20010;-80
2022/07/17 11:38:11;;;;;;;5.65;2.95;;;;;;;27.83;37.22;102913.31;7384793;19;20799;-81
2022/07/17 11:40:49;;;;;;;10.20;3.72;;;;;;;27.94;37.00;102909.41;7385002;19;20090;-80
2022/07/17 11:43:31;;;;;;;7.78;3.30;;;;;;;27.88;36.46;102911.38;7389324;19;20014;-82
2022/07/17 11:46:01;;;;;;;7.85;3.58;;;;;;;27.90;36.74;102906.84;7391821;19;20014;-79
2022/07/17 11:48:35;;;;;;;6.68;3.20;;;;;;;28.08;36.96;102911.72;7393605;19;20554;-82